Time;durP1;ratioP1;P1;durP2;ratioP2;P2;SDS_P1;SDS_P2;PMS_P1;PMS_P2;Temp;Humidity;BMP_temperature;BMP_pressure;BME280_temperature;BME280_humidity;BME280_pressure;Samples;Min_cycle;Max_cycle;Signal;HPM_P1;HPM_P2
2021/10/07 00:00:53;;;;;;;3.33;1.10;;;20.30;51.10;;;;;;5080330;28;20040;-65
2021/10/07 00:03:19;;;;;;;3.53;1.17;;;20.30;51.10;;;;;;5077572;28;20052;-65
2021/10/07 00:05:45;;;;;;;3.35;1.40;;;20.30;51.00;;;;;;5088552;28;20395;-65
2021/10/07 00:08:11;;;;;;;2.03;0.95;;;20.30;51.00;;;;;;5090782;28;20028;-65
2021/10/07 00:10:37;;;;;;;3.13;1.13;;;20.30;51.10;;;;;;5087518;28;20046;-65
2021/10/07 00:13:03;;;;;;;3.35;1.20;;;20.40;51.10;;;;;;5085141;28;20047;-65
2021/10/07 00:15:28;;;;;;;2.97;1.20;;;20.30;51.10;;;;;;5089088;28;20456;-65
2021/10/07 00:17:54;;;;;;;2.78;1.08;;;20.30;51.10;;;;;;5072421;28;20028;-65
2021/10/07 00:20:20;;;;;;;3.45;1.30;;;20.30;51.10;;;;;;5085252;28;20062;-65
2021/10/07 00:22:46;;;;;;;3.83;1.13;;;20.30;51.10;;;;;;5084486;28;20442;-65
2021/10/07 00:25:14;;;;;;;3.60;1.48;;;20.30;51.10;;;;;;5086161;28;20055;-65
2021/10/07 00:27:39;;;;;;;3.92;1.25;;;20.30;51.10;;;;;;5087147;28;20464;-65
2021/10/07 00:30:18;;;;;;;2.97;1.27;;;20.30;51.10;;;;;;5088845;28;20024;-65
2021/10/07 00:33:05;;;;;;;3.28;1.42;;;20.30;51.20;;;;;;5086614;28;20046;-65
2021/10/07 00:35:41;;;;;;;3.33;1.17;;;20.30;51.10;;;;;;5077313;28;20487;-65
2021/10/07 00:40:52;;;;;;;3.70;1.60;;;20.30;51.20;;;;;;5087667;28;20404;-65
2021/10/07 00:43:17;;;;;;;3.97;1.40;;;20.30;51.20;;;;;;5088354;28;20510;-65
2021/10/07 00:45:56;;;;;;;3.45;1.27;;;20.30;51.20;;;;;;5088587;28;20081;-65
2021/10/07 00:48:23;;;;;;;3.95;1.38;;;20.30;51.20;;;;;;5087884;28;20028;-65
2021/10/07 00:50:49;;;;;;;3.72;1.40;;;20.30;51.20;;;;;;5088211;28;20032;-65
2021/10/07 00:53:17;;;;;;;3.30;1.40;;;20.30;51.20;;;;;;5086039;28;20102;-65
2021/10/07 00:55:42;;;;;;;3.45;1.50;;;20.30;51.30;;;;;;5088941;28;20024;-65
2021/10/07 00:58:09;;;;;;;4.22;1.45;;;20.30;51.20;;;;;;5085008;28;20032;-65
2021/10/07 01:00:35;;;;;;;4.60;1.30;;;20.30;51.30;;;;;;5087926;28;20024;-65
2021/10/07 01:03:02;;;;;;;3.17;1.40;;;20.30;51.30;;;;;;5089355;28;20133;-65
2021/10/07 01:05:28;;;;;;;4.07;1.30;;;20.30;51.30;;;;;;5087044;28;20016;-65
2021/10/07 01:07:56;;;;;;;3.50;1.50;;;20.20;51.30;;;;;;5080339;28;20029;-65
2021/10/07 01:10:22;;;;;;;3.50;1.30;;;20.30;51.30;;;;;;5085465;28;20022;-65
2021/10/07 01:12:48;;;;;;;4.00;1.60;;;20.20;51.30;;;;;;5089036;28;20205;-65
2021/10/07 01:15:14;;;;;;;3.70;1.30;;;20.20;51.30;;;;;;5081818;28;20565;-65
2021/10/07 01:17:39;;;;;;;3.85;1.60;;;20.30;51.40;;;;;;5078392;28;20429;-65
2021/10/07 01:20:06;;;;;;;3.72;1.45;;;20.20;51.30;;;;;;5084760;28;20048;-65
2021/10/07 01:22:33;;;;;;;3.55;1.42;;;20.20;51.40;;;;;;5086138;28;20024;-65
2021/10/07 01:25:00;;;;;;;3.33;1.38;;;20.20;51.40;;;;;;5083487;28;20028;-65
2021/10/07 01:27:29;;;;;;;3.58;1.40;;;20.20;51.40;;;;;;5088600;28;20153;-65
2021/10/07 01:29:57;;;;;;;3.70;1.42;;;20.20;51.40;;;;;;5087351;28;20024;-65
2021/10/07 01:32:24;;;;;;;3.65;1.50;;;20.30;51.40;;;;;;5085933;28;20040;-65
2021/10/07 01:34:50;;;;;;;3.78;1.50;;;20.20;51.40;;;;;;5084622;28;20028;-65
2021/10/07 01:37:16;;;;;;;3.05;1.30;;;20.20;51.40;;;;;;5088183;28;20027;-65
2021/10/07 01:39:42;;;;;;;3.75;1.60;;;20.20;51.40;;;;;;5087018;28;20024;-65
2021/10/07 01:42:08;;;;;;;4.35;1.50;;;20.20;51.40;;;;;;5087550;28;20798;-65
2021/10/07 01:44:34;;;;;;;3.85;1.60;;;20.20;51.50;;;;;;5081637;28;20035;-65
2021/10/07 01:47:00;;;;;;;2.90;1.40;;;20.20;51.50;;;;;;5087981;28;20066;-65
2021/10/07 01:49:26;;;;;;;3.70;1.48;;;20.20;51.50;;;;;;5084097;28;20012;-65
2021/10/07 01:51:52;;;;;;;3.47;1.30;;;20.20;51.50;;;;;;5087727;28;20036;-65
2021/10/07 01:54:18;;;;;;;4.90;1.40;;;20.20;51.60;;;;;;5088112;28;20034;-65
2021/10/07 01:56:44;;;;;;;3.97;1.50;;;20.20;51.60;;;;;;5089479;28;20107;-65
2021/10/07 01:59:10;;;;;;;3.28;1.45;;;20.20;51.60;;;;;;5086621;28;20098;-65
2021/10/07 02:01:36;;;;;;;5.28;1.35;;;20.20;51.60;;;;;;5082863;28;20035;-65
2021/10/07 02:04:04;;;;;;;3.38;1.38;;;20.20;51.50;;;;;;5079381;28;20485;-65
2021/10/07 02:06:29;;;;;;;4.20;1.73;;;20.20;51.60;;;;;;5087338;28;20027;-65
2021/10/07 02:08:56;;;;;;;3.53;1.30;;;20.20;51.60;;;;;;5089467;28;20028;-65
2021/10/07 02:11:22;;;;;;;3.35;1.48;;;20.20;51.60;;;;;;5084977;28;20111;-65
2021/10/07 02:13:48;;;;;;;3.72;1.50;;;20.20;51.60;;;;;;5080439;28;20040;-65
2021/10/07 02:16:14;;;;;;;4.65;1.40;;;20.20;51.60;;;;;;5085551;28;20396;-65
2021/10/07 02:18:40;;;;;;;3.95;1.50;;;20.20;51.60;;;;;;5081792;28;20059;-65
2021/10/07 02:21:05;;;;;;;3.28;1.40;;;20.20;51.60;;;;;;5087872;28;20438;-65
2021/10/07 02:23:31;;;;;;;5.43;1.52;;;20.20;51.70;;;;;;5086300;28;20026;-65
2021/10/07 02:25:58;;;;;;;3.60;1.48;;;20.20;51.60;;;;;;5083186;28;20447;-65
2021/10/07 02:28:28;;;;;;;4.25;1.40;;;20.20;51.70;;;;;;5087133;28;20039;-65
2021/10/07 02:30:58;;;;;;;3.72;1.48;;;20.20;51.70;;;;;;5083686;28;20492;-65
2021/10/07 02:33:30;;;;;;;4.30;1.53;;;20.20;51.80;;;;;;5087864;28;20063;-65
2021/10/07 02:36:03;;;;;;;3.75;1.30;;;20.20;51.70;;;;;;5086250;28;20508;-65
2021/10/07 02:38:32;;;;;;;4.65;1.73;;;20.20;51.80;;;;;;5085958;28;20031;-65
2021/10/07 02:41:04;;;;;;;4.43;1.70;;;20.20;51.80;;;;;;5083432;28;20027;-65
2021/10/07 02:43:36;;;;;;;3.97;1.42;;;20.20;51.80;;;;;;5083496;28;20024;-65
2021/10/07 02:46:05;;;;;;;3.85;1.65;;;20.20;51.80;;;;;;5083069;28;20027;-65
2021/10/07 02:48:33;;;;;;;3.97;1.52;;;20.20;51.90;;;;;;5087002;28;20024;-65
2021/10/07 02:51:05;;;;;;;3.78;1.52;;;20.20;51.80;;;;;;5085946;28;20085;-65
2021/10/07 02:53:33;;;;;;;5.03;1.70;;;20.20;51.90;;;;;;5074700;28;20051;-65
2021/10/07 02:56:04;;;;;;;5.25;1.70;;;20.20;51.90;;;;;;5080844;28;20032;-65
2021/10/07 02:58:34;;;;;;;4.20;1.40;;;20.10;51.90;;;;;;5083439;28;20036;-65
2021/10/07 03:01:00;;;;;;;5.63;1.70;;;20.20;51.90;;;;;;5087253;28;20858;-65
2021/10/07 03:03:30;;;;;;;4.05;1.50;;;20.10;51.80;;;;;;5087002;28;20044;-65
2021/10/07 03:05:59;;;;;;;3.97;1.50;;;20.10;51.80;;;;;;5086553;28;20403;-65
2021/10/07 03:08:28;;;;;;;4.28;1.55;;;20.20;52.00;;;;;;5084849;28;20411;-65
2021/10/07 03:10:59;;;;;;;3.70;1.50;;;20.10;51.80;;;;;;5080082;28;20606;-65
2021/10/07 03:13:28;;;;;;;3.85;1.30;;;20.20;51.90;;;;;;5076082;28;20028;-65
2021/10/07 03:15:54;;;;;;;4.35;1.48;;;20.10;51.80;;;;;;5091040;28;20043;-65
2021/10/07 03:18:20;;;;;;;3.70;1.50;;;20.10;51.80;;;;;;5090671;28;20035;-65
2021/10/07 03:20:45;;;;;;;2.88;1.20;;;20.20;51.90;;;;;;5085605;28;20028;-65
2021/10/07 03:23:11;;;;;;;3.47;1.50;;;20.20;51.90;;;;;;5091768;28;20028;-65
2021/10/07 03:25:37;;;;;;;3.72;1.50;;;20.10;51.90;;;;;;5088443;28;20028;-65
2021/10/07 03:28:03;;;;;;;3.28;1.30;;;20.10;51.80;;;;;;5091088;28;20566;-65
2021/10/07 03:30:29;;;;;;;4.57;1.55;;;20.10;51.90;;;;;;5091177;28;20024;-65
2021/10/07 03:32:54;;;;;;;3.53;1.40;;;20.10;51.90;;;;;;5089494;28;20080;-65
2021/10/07 03:35:20;;;;;;;4.03;1.38;;;20.10;51.90;;;;;;5089985;28;20110;-65
2021/10/07 03:37:46;;;;;;;3.90;1.40;;;20.10;51.90;;;;;;5089085;28;20106;-65
2021/10/07 03:40:12;;;;;;;3.53;1.40;;;20.10;51.90;;;;;;5087581;28;20020;-65
2021/10/07 03:42:38;;;;;;;4.05;1.50;;;20.10;52.00;;;;;;5088131;28;20060;-65
2021/10/07 03:45:06;;;;;;;3.55;1.40;;;20.10;52.00;;;;;;5091640;28;20024;-65
2021/10/07 03:47:32;;;;;;;4.65;1.48;;;20.10;52.00;;;;;;5091767;28;20035;-65
2021/10/07 03:49:58;;;;;;;3.33;1.25;;;20.10;52.00;;;;;;5082842;28;20028;-65
2021/10/07 03:52:25;;;;;;;3.53;1.20;;;20.10;52.00;;;;;;5087607;28;20067;-65
2021/10/07 03:54:51;;;;;;;2.95;1.27;;;20.10;52.00;;;;;;5086865;28;20055;-65
2021/10/07 03:57:17;;;;;;;4.55;1.55;;;20.10;52.00;;;;;;5091682;28;20032;-65
2021/10/07 03:59:43;;;;;;;4.15;1.38;;;20.10;52.00;;;;;;5089750;28;20028;-65
2021/10/07 04:02:09;;;;;;;4.72;1.42;;;20.10;52.00;;;;;;5089920;28;20554;-65
2021/10/07 04:04:34;;;;;;;4.50;1.58;;;20.10;52.00;;;;;;5087488;28;20412;-65
2021/10/07 04:07:00;;;;;;;3.75;1.50;;;20.10;52.00;;;;;;5087934;28;20380;-65
2021/10/07 04:09:26;;;;;;;3.78;1.30;;;20.10;52.00;;;;;;5090850;28;20024;-65
2021/10/07 04:11:52;;;;;;;4.45;1.48;;;20.10;52.00;;;;;;5087631;28;20103;-65
2021/10/07 04:14:17;;;;;;;2.72;1.30;;;20.10;52.00;;;;;;5090944;28;20028;-65
2021/10/07 04:16:43;;;;;;;4.68;1.45;;;20.10;52.10;;;;;;5085478;28;20036;-65
2021/10/07 04:19:09;;;;;;;3.08;1.33;;;20.10;52.10;;;;;;5085303;28;20036;-65
2021/10/07 04:21:35;;;;;;;3.25;1.30;;;20.10;52.10;;;;;;5089868;28;20059;-65
2021/10/07 04:24:00;;;;;;;2.72;1.23;;;20.10;52.10;;;;;;5087239;28;20021;-65
2021/10/07 04:26:27;;;;;;;3.00;1.27;;;20.10;52.10;;;;;;5091002;28;20031;-66
2021/10/07 04:28:53;;;;;;;4.53;1.40;;;20.10;52.10;;;;;;5088161;28;20658;-66
2021/10/07 04:31:19;;;;;;;4.43;1.35;;;20.10;52.10;;;;;;5093341;28;20497;-65
2021/10/07 04:33:45;;;;;;;4.20;1.38;;;20.10;52.20;;;;;;5090800;28;20041;-65
2021/10/07 04:36:11;;;;;;;3.95;1.33;;;20.10;52.20;;;;;;5089801;28;20036;-65
2021/10/07 04:38:36;;;;;;;4.55;1.50;;;20.10;52.20;;;;;;5088375;28;20102;-65
2021/10/07 04:41:02;;;;;;;3.53;1.30;;;20.10;52.20;;;;;;5089274;28;20107;-66
2021/10/07 04:43:28;;;;;;;2.70;1.30;;;20.10;52.20;;;;;;5083507;28;20049;-67
2021/10/07 04:45:54;;;;;;;3.67;1.40;;;20.10;52.20;;;;;;5089503;28;20517;-66
2021/10/07 04:48:20;;;;;;;5.70;1.38;;;20.10;52.30;;;;;;5103524;28;20114;-66
2021/10/07 04:50:46;;;;;;;9.18;1.50;;;20.10;52.40;;;;;;5098079;28;20028;-66
2021/10/07 04:53:12;;;;;;;7.32;1.20;;;20.10;52.40;;;;;;5096281;28;20048;-67
2021/10/07 04:55:37;;;;;;;6.90;1.38;;;20.10;52.60;;;;;;5089588;28;20038;-67
2021/10/07 04:58:03;;;;;;;3.80;1.20;;;20.10;52.80;;;;;;5091270;28;20038;-67
2021/10/07 14:58:59;;;;;;;4.88;1.80;;;25.40;49.50;;;;;;5062466;28;20432;-74
2021/10/07 15:01:24;;;;;;;6.50;2.00;;;24.30;52.90;;;;;;5043412;28;20483;-70
2021/10/07 15:03:53;;;;;;;9.38;2.22;;;24.20;53.50;;;;;;5040330;28;20567;-70
2021/10/07 15:06:18;;;;;;;10.65;2.10;;;24.10;53.60;;;;;;5028170;28;20036;-70
2021/10/07 15:08:44;;;;;;;6.55;1.88;;;24.20;53.80;;;;;;5047241;28;20100;-69
2021/10/07 15:11:11;;;;;;;9.23;2.35;;;24.20;53.90;;;;;;5042322;28;20501;-77
2021/10/07 15:13:37;;;;;;;6.32;2.00;;;24.30;53.90;;;;;;5039859;28;20396;-69
2021/10/07 15:16:03;;;;;;;7.47;2.25;;;24.40;53.90;;;;;;5053658;28;20040;-66
2021/10/07 15:18:31;;;;;;;7.78;2.40;;;24.20;54.40;;;;;;5051691;28;20039;-69
2021/10/07 15:21:00;;;;;;;7.82;2.10;;;24.10;54.40;;;;;;5044143;28;20033;-69
2021/10/07 15:23:26;;;;;;;8.48;1.88;;;24.10;54.80;;;;;;5045638;28;20612;-70
2021/10/07 15:25:52;;;;;;;8.82;2.00;;;23.90;55.30;;;;;;5042018;28;20033;-68
2021/10/07 15:28:18;;;;;;;7.72;2.10;;;23.80;56.40;;;;;;5046975;28;20144;-69
2021/10/07 15:30:44;;;;;;;7.38;1.92;;;23.80;55.90;;;;;;5052052;28;20041;-70
2021/10/07 15:33:10;;;;;;;8.30;2.10;;;23.70;56.70;;;;;;5051158;28;20446;-68
2021/10/07 15:35:35;;;;;;;9.55;1.90;;;23.80;55.80;;;;;;5049577;28;20029;-65
2021/10/07 15:38:02;;;;;;;7.45;1.50;;;23.90;55.40;;;;;;5043163;28;20035;-64
2021/10/07 15:40:28;;;;;;;14.15;1.80;;;23.90;55.30;;;;;;5047428;28;20092;-65
2021/10/07 15:42:54;;;;;;;8.82;2.10;;;23.80;55.30;;;;;;5042409;28;20036;-66
2021/10/07 15:45:20;;;;;;;16.98;10.20;;;23.70;55.50;;;;;;5048099;28;20427;-75
2021/10/07 15:47:46;;;;;;;19.83;10.50;;;23.30;56.80;;;;;;5073274;28;20033;-73
2021/10/07 15:50:12;;;;;;;26.30;18.98;;;23.10;57.50;;;;;;5045849;28;20029;-73
2021/10/07 15:52:37;;;;;;;19.27;12.93;;;23.00;57.70;;;;;;5040684;28;20108;-73
2021/10/07 15:55:05;;;;;;;20.77;12.10;;;22.90;58.10;;;;;;5043977;28;20159;-73
2021/10/07 15:57:33;;;;;;;23.83;10.48;;;22.90;58.40;;;;;;5043165;28;20060;-75
2021/10/07 15:59:59;;;;;;;16.02;8.85;;;22.80;58.40;;;;;;5043605;28;20025;-76
2021/10/07 16:02:25;;;;;;;20.15;8.55;;;22.80;58.40;;;;;;5046137;28;20131;-74
2021/10/07 16:04:51;;;;;;;18.55;7.50;;;22.70;58.60;;;;;;5050871;28;20545;-74
2021/10/07 16:07:17;;;;;;;15.63;6.85;;;22.70;58.90;;;;;;5042345;28;20550;-74
2021/10/07 16:09:42;;;;;;;12.80;6.25;;;22.70;58.90;;;;;;5030944;28;20052;-74
2021/10/07 16:12:08;;;;;;;12.10;6.15;;;22.60;58.90;;;;;;5028910;28;20060;-74
2021/10/07 16:14:34;;;;;;;10.43;4.75;;;22.60;58.90;;;;;;5036730;28;20026;-75
2021/10/07 16:17:00;;;;;;;12.80;4.32;;;22.50;58.90;;;;;;5035519;28;20041;-75
2021/10/07 16:19:26;;;;;;;11.23;3.67;;;22.50;58.90;;;;;;5025090;28;20021;-74
2021/10/07 16:21:54;;;;;;;9.90;3.50;;;22.40;59.00;;;;;;5022599;28;20111;-74
2021/10/07 16:24:21;;;;;;;6.00;3.00;;;22.30;59.00;;;;;;5025216;28;20056;-74
2021/10/07 16:26:50;;;;;;;10.90;2.90;;;22.30;59.20;;;;;;5018654;28;20034;-75
2021/10/07 16:29:16;;;;;;;6.50;2.50;;;22.20;59.20;;;;;;5024645;28;20026;-75
2021/10/07 16:31:42;;;;;;;4.90;1.95;;;22.20;59.30;;;;;;5028293;28;20071;-74
2021/10/07 16:34:09;;;;;;;8.02;2.30;;;22.10;59.40;;;;;;5032973;28;20112;-75
2021/10/07 16:36:38;;;;;;;7.13;2.30;;;22.10;59.50;;;;;;5028680;28;20025;-76
2021/10/07 16:39:04;;;;;;;6.85;2.72;;;22.10;59.70;;;;;;5017783;28;20028;-75
2021/10/07 16:41:31;;;;;;;9.88;2.63;;;22.00;59.80;;;;;;5030645;28;20041;-73
2021/10/07 16:43:57;;;;;;;5.90;2.75;;;22.00;60.10;;;;;;5025324;28;20112;-72
2021/10/07 16:46:23;;;;;;;7.97;3.10;;;21.90;60.30;;;;;;5027486;28;20104;-72
2021/10/07 16:48:49;;;;;;;8.70;3.65;;;21.90;60.30;;;;;;5017548;28;20056;-72
2021/10/07 16:51:15;;;;;;;9.70;3.67;;;21.90;60.30;;;;;;5014262;28;20104;-72
2021/10/07 16:53:41;;;;;;;9.30;3.30;;;21.90;60.20;;;;;;5026846;28;20140;-72
2021/10/07 16:56:10;;;;;;;10.57;3.30;;;22.00;60.20;;;;;;5026112;28;20061;-72
2021/10/07 16:58:39;;;;;;;10.57;3.33;;;22.00;60.20;;;;;;5022628;28;20061;-72
2021/10/07 17:01:05;;;;;;;8.90;3.40;;;22.00;60.20;;;;;;5017833;28;20026;-72
2021/10/07 17:03:32;;;;;;;8.15;3.60;;;21.90;60.10;;;;;;5027631;28;20030;-72
2021/10/07 17:05:58;;;;;;;9.52;3.15;;;21.90;60.30;;;;;;5014624;28;20540;-72
2021/10/07 17:08:24;;;;;;;9.68;3.60;;;22.00;60.20;;;;;;5029807;28;20021;-73
2021/10/07 17:10:50;;;;;;;9.43;3.15;;;21.90;60.20;;;;;;5033333;28;20025;-74
2021/10/07 17:13:16;;;;;;;10.98;3.50;;;21.90;60.20;;;;;;5026733;28;20091;-73
2021/10/07 17:15:43;;;;;;;9.70;3.40;;;21.90;60.20;;;;;;5014840;28;20026;-73
2021/10/07 17:18:09;;;;;;;9.52;3.10;;;21.90;60.30;;;;;;5030000;28;20037;-73
2021/10/07 17:20:35;;;;;;;9.27;3.40;;;21.90;60.30;;;;;;5025714;28;20370;-73
2021/10/07 17:23:01;;;;;;;11.63;3.33;;;21.90;60.20;;;;;;5021004;28;20026;-73
2021/10/07 17:25:29;;;;;;;7.65;3.20;;;21.90;60.20;;;;;;5016348;28;20068;-73
2021/10/07 17:27:57;;;;;;;8.13;3.22;;;21.90;60.20;;;;;;5044005;28;20065;-73
2021/10/07 17:30:23;;;;;;;8.65;3.20;;;21.90;60.10;;;;;;5026772;28;20018;-73
2021/10/07 17:32:49;;;;;;;8.30;2.92;;;21.90;60.10;;;;;;5023597;28;20025;-73
2021/10/07 17:35:16;;;;;;;11.65;2.80;;;21.80;60.00;;;;;;5016613;28;20022;-73
2021/10/07 17:37:43;;;;;;;8.00;3.08;;;21.80;60.00;;;;;;5018725;28;20053;-73
2021/10/07 17:40:11;;;;;;;8.13;3.03;;;21.90;60.00;;;;;;5034476;28;20396;-73
2021/10/07 17:42:38;;;;;;;8.35;2.53;;;21.80;60.00;;;;;;5029227;28;20496;-73
2021/10/07 17:45:06;;;;;;;8.27;2.75;;;21.90;59.90;;;;;;5031829;28;20021;-74
2021/10/07 17:47:31;;;;;;;9.20;2.70;;;21.80;59.90;;;;;;5034559;28;20488;-74
2021/10/07 17:49:57;;;;;;;7.30;2.40;;;21.80;59.90;;;;;;5029289;28;20032;-73
2021/10/07 17:52:23;;;;;;;7.55;2.47;;;21.80;59.80;;;;;;5024955;28;20025;-73
2021/10/07 17:54:49;;;;;;;7.70;2.70;;;21.80;59.80;;;;;;5031773;28;20025;-73
2021/10/07 17:57:15;;;;;;;11.18;2.78;;;21.80;59.90;;;;;;5013704;28;20526;-71
2021/10/07 17:59:41;;;;;;;8.80;2.10;;;21.80;60.00;;;;;;5026830;28;20056;-72
2021/10/07 18:02:07;;;;;;;6.20;2.30;;;21.80;60.00;;;;;;5020150;28;20157;-71
2021/10/07 18:04:33;;;;;;;8.13;2.40;;;21.80;60.20;;;;;;5021575;28;20033;-72
2021/10/07 18:07:04;;;;;;;5.85;2.38;;;21.80;60.50;;;;;;5025313;28;20037;-71
2021/10/07 18:09:29;;;;;;;8.70;2.17;;;21.80;60.60;;;;;;5023274;28;20033;-72
2021/10/07 18:11:56;;;;;;;7.32;2.17;;;21.80;60.60;;;;;;5028891;28;20102;-71
2021/10/07 18:14:22;;;;;;;6.10;2.10;;;21.80;60.70;;;;;;5016633;28;20091;-71
2021/10/07 18:16:47;;;;;;;7.50;2.40;;;21.80;60.60;;;;;;5024056;28;20021;-71
2021/10/07 18:19:13;;;;;;;9.13;2.00;;;21.80;60.50;;;;;;5026990;28;20588;-71
2021/10/07 18:21:39;;;;;;;9.05;1.92;;;21.80;60.50;;;;;;5027958;28;20029;-73
2021/10/07 18:24:09;;;;;;;8.88;2.05;;;21.80;60.60;;;;;;5028102;28;20084;-72
2021/10/07 18:26:35;;;;;;;8.10;2.22;;;21.80;60.50;;;;;;5015841;28;20057;-73
2021/10/07 18:29:02;;;;;;;6.38;2.00;;;21.80;60.20;;;;;;5013386;28;20560;-72
2021/10/07 18:31:28;;;;;;;5.75;2.00;;;21.80;60.20;;;;;;5016679;28;20113;-72
2021/10/07 18:33:56;;;;;;;4.68;1.80;;;21.70;60.10;;;;;;5012983;28;20113;-72
2021/10/07 18:36:22;;;;;;;4.80;2.00;;;21.70;59.90;;;;;;5011491;28;20037;-72
2021/10/07 18:38:49;;;;;;;7.85;1.92;;;21.70;59.80;;;;;;5018005;28;20056;-72
2021/10/07 18:41:15;;;;;;;7.00;1.83;;;21.70;59.70;;;;;;5027122;28;20025;-73
2021/10/07 18:43:41;;;;;;;6.28;1.70;;;21.70;59.70;;;;;;5030584;28;20030;-75
2021/10/07 18:46:08;;;;;;;4.07;1.77;;;21.70;59.60;;;;;;5024894;28;20040;-74
2021/10/07 18:48:34;;;;;;;5.35;1.90;;;21.60;59.40;;;;;;5018661;28;20021;-72
2021/10/07 18:51:01;;;;;;;4.40;1.70;;;21.60;60.30;;;;;;5028705;28;20030;-74
2021/10/07 18:53:28;;;;;;;5.60;1.70;;;21.60;59.30;;;;;;5026555;28;20120;-74
2021/10/07 18:55:54;;;;;;;4.30;1.67;;;21.60;59.30;;;;;;5021575;28;20548;-74
2021/10/07 18:58:20;;;;;;;4.88;1.65;;;21.60;59.20;;;;;;5026466;28;20049;-74
2021/10/07 19:00:46;;;;;;;3.88;1.40;;;21.60;59.10;;;;;;5030801;28;20041;-74
2021/10/07 19:03:12;;;;;;;4.97;1.70;;;21.60;59.10;;;;;;5029940;28;20493;-74
2021/10/07 19:05:38;;;;;;;4.53;1.70;;;21.50;58.90;;;;;;5027688;28;20045;-74
2021/10/07 19:08:04;;;;;;;4.22;1.65;;;21.50;58.90;;;;;;5024969;28;20497;-75
2021/10/07 19:10:30;;;;;;;4.90;1.40;;;21.50;59.00;;;;;;5030790;28;20032;-73
2021/10/07 19:12:57;;;;;;;3.92;1.70;;;21.50;58.80;;;;;;5037228;28;20026;-72
2021/10/07 19:15:23;;;;;;;3.67;1.48;;;21.50;58.80;;;;;;5036414;28;20040;-72
2021/10/07 19:17:50;;;;;;;4.20;1.70;;;21.50;58.80;;;;;;5018962;28;20038;-72
2021/10/07 19:20:17;;;;;;;4.65;1.70;;;21.50;58.70;;;;;;5011580;28;20053;-72
2021/10/07 19:22:44;;;;;;;3.60;1.63;;;21.50;58.60;;;;;;5018060;28;20025;-72
2021/10/07 19:25:13;;;;;;;4.00;1.65;;;21.50;58.60;;;;;;5015924;28;20041;-72
2021/10/07 19:27:41;;;;;;;4.28;1.48;;;21.50;58.60;;;;;;5019899;28;20537;-71
2021/10/07 19:30:08;;;;;;;3.55;1.60;;;21.40;58.50;;;;;;5021749;28;20512;-72
2021/10/07 19:32:34;;;;;;;3.50;1.58;;;21.40;58.50;;;;;;5055600;28;20028;-72
2021/10/07 19:35:00;;;;;;;3.67;1.60;;;21.40;58.40;;;;;;5025259;28;20099;-72
2021/10/07 19:37:26;;;;;;;3.60;1.60;;;21.50;58.50;;;;;;5023357;28;20034;-72
2021/10/07 19:39:52;;;;;;;3.75;1.52;;;21.40;58.40;;;;;;5027211;28;20083;-72
2021/10/07 19:42:18;;;;;;;3.42;1.67;;;21.40;58.30;;;;;;5031765;28;21209;-72
2021/10/07 19:44:44;;;;;;;4.10;1.60;;;21.40;58.30;;;;;;5027674;28;20404;-72
2021/10/07 19:47:10;;;;;;;3.30;1.58;;;21.40;58.50;;;;;;5029319;28;20046;-75
2021/10/07 19:49:36;;;;;;;13.43;1.83;;;21.50;59.00;;;;;;5039194;28;20025;-75
2021/10/07 19:52:02;;;;;;;9.48;1.85;;;21.50;59.30;;;;;;5027426;28;20030;-76
2021/10/07 19:54:28;;;;;;;13.63;1.90;;;21.50;59.40;;;;;;5030283;28;20103;-76
2021/10/07 19:56:54;;;;;;;11.10;1.90;;;21.50;59.20;;;;;;5029423;28;20068;-76
2021/10/07 19:59:19;;;;;;;15.60;1.98;;;21.50;59.20;;;;;;5027149;28;20030;-75
2021/10/07 20:01:46;;;;;;;7.35;1.90;;;21.50;58.80;;;;;;5034538;28;20068;-75
2021/10/07 20:04:14;;;;;;;7.07;1.90;;;21.50;58.80;;;;;;5025967;28;20033;-75
2021/10/07 20:06:40;;;;;;;5.65;1.70;;;21.50;58.70;;;;;;5029195;28;20021;-75
2021/10/07 20:09:07;;;;;;;8.82;1.95;;;21.50;58.50;;;;;;5030528;28;20025;-76
2021/10/07 20:11:34;;;;;;;7.90;1.83;;;21.50;58.50;;;;;;5034783;28;20492;-75
2021/10/07 20:14:01;;;;;;;5.90;1.63;;;21.50;58.40;;;;;;5030897;28;20034;-75
2021/10/07 20:16:27;;;;;;;6.38;1.80;;;21.50;58.30;;;;;;5026054;28;20031;-76
2021/10/07 20:18:53;;;;;;;6.30;1.70;;;21.50;58.30;;;;;;5031743;28;20148;-75
2021/10/07 20:21:20;;;;;;;5.43;2.00;;;21.40;58.20;;;;;;5031632;28;20025;-76
2021/10/07 20:23:46;;;;;;;5.15;1.90;;;21.40;58.20;;;;;;5027807;28;20036;-76
2021/10/07 20:26:13;;;;;;;5.55;2.08;;;21.40;58.10;;;;;;5028724;28;20060;-75
2021/10/07 20:28:39;;;;;;;5.70;1.90;;;21.40;58.00;;;;;;5030979;28;20512;-75
2021/10/07 20:31:06;;;;;;;6.03;1.80;;;21.40;58.00;;;;;;5016187;28;20038;-76
2021/10/07 20:38:49;;;;;;;7.78;1.88;;;21.40;58.00;;;;;;5030451;28;20124;-75
2021/10/07 20:41:15;;;;;;;7.30;1.90;;;21.40;57.90;;;;;;5029415;28;20021;-75
2021/10/07 20:43:41;;;;;;;4.57;1.85;;;21.40;58.00;;;;;;5027000;28;20037;-76
2021/10/07 20:46:07;;;;;;;4.63;1.75;;;21.40;57.90;;;;;;5026303;28;20026;-75
2021/10/07 20:48:33;;;;;;;5.53;2.20;;;21.40;57.90;;;;;;5030654;28;20033;-75
2021/10/07 20:51:00;;;;;;;5.20;2.00;;;21.40;57.90;;;;;;5037612;28;20033;-75
2021/10/07 20:53:26;;;;;;;5.35;1.90;;;21.30;57.80;;;;;;5031864;28;20033;-75
2021/10/07 20:55:51;;;;;;;5.10;2.03;;;21.30;57.80;;;;;;5026379;28;20029;-75
2021/10/07 20:58:17;;;;;;;4.47;1.80;;;21.30;57.70;;;;;;5032721;28;20049;-75
2021/10/07 21:00:43;;;;;;;4.05;1.75;;;21.30;57.70;;;;;;5028073;28;20026;-75
2021/10/07 21:03:08;;;;;;;6.05;2.13;;;21.30;57.70;;;;;;5028486;28;20032;-75
2021/10/07 21:05:34;;;;;;;5.80;2.10;;;21.30;57.70;;;;;;5027952;28;20032;-76
2021/10/07 21:08:00;;;;;;;4.68;1.98;;;21.30;57.70;;;;;;5025879;28;20240;-75
2021/10/07 21:10:26;;;;;;;4.00;1.90;;;21.30;57.70;;;;;;5029592;28;20029;-75
2021/10/07 21:12:51;;;;;;;5.07;2.10;;;21.30;57.60;;;;;;5026410;28;20030;-75
2021/10/07 21:15:17;;;;;;;4.88;2.20;;;21.30;57.60;;;;;;5029854;28;20130;-75
2021/10/07 21:17:44;;;;;;;3.90;2.00;;;21.30;57.60;;;;;;5031772;28;20025;-76
2021/10/07 21:20:15;;;;;;;5.00;1.90;;;21.30;57.60;;;;;;5035414;28;20028;-75
2021/10/07 21:22:41;;;;;;;4.13;2.20;;;21.30;57.60;;;;;;5034887;28;20022;-75
2021/10/07 21:25:08;;;;;;;5.85;2.20;;;21.30;57.60;;;;;;5030784;28;20053;-75
2021/10/07 21:27:37;;;;;;;4.78;2.30;;;21.20;57.50;;;;;;5028287;28;20014;-75
2021/10/07 21:30:04;;;;;;;4.28;2.05;;;21.20;57.50;;;;;;5017277;28;20038;-76
2021/10/07 21:32:29;;;;;;;4.15;2.25;;;21.20;57.50;;;;;;5022364;28;20552;-75
2021/10/07 21:34:55;;;;;;;5.63;2.50;;;21.30;57.50;;;;;;5025003;28;20076;-75
2021/10/07 21:37:21;;;;;;;4.45;2.28;;;21.20;57.50;;;;;;5025109;28;20037;-75
2021/10/07 21:39:47;;;;;;;4.75;2.10;;;21.20;57.60;;;;;;5026955;28;20037;-75
2021/10/07 21:42:12;;;;;;;5.68;2.42;;;21.20;57.50;;;;;;5027843;28;20397;-75
2021/10/07 21:44:38;;;;;;;4.03;2.28;;;21.20;57.50;;;;;;5027928;28;20056;-75
2021/10/07 21:47:04;;;;;;;4.57;2.20;;;21.20;57.50;;;;;;5029405;28;20021;-76
2021/10/07 21:49:30;;;;;;;4.50;2.20;;;21.20;57.50;;;;;;5032412;28;20025;-75
2021/10/07 21:51:55;;;;;;;3.83;2.05;;;21.20;57.50;;;;;;5034255;28;20038;-75
2021/10/07 21:54:21;;;;;;;4.03;2.30;;;21.20;57.40;;;;;;5031115;28;20119;-74
2021/10/07 21:56:47;;;;;;;3.85;2.13;;;21.20;57.40;;;;;;5021794;28;20524;-75
2021/10/07 21:59:13;;;;;;;4.78;2.28;;;21.20;57.40;;;;;;5028845;28;20033;-75
2021/10/07 22:01:39;;;;;;;4.07;2.20;;;21.20;57.40;;;;;;5029244;28;20033;-75
2021/10/07 22:04:05;;;;;;;3.70;1.90;;;21.20;57.40;;;;;;5028019;28;20025;-75
2021/10/07 22:06:30;;;;;;;3.70;2.00;;;21.20;57.30;;;;;;5018072;28;20029;-75
2021/10/07 22:08:56;;;;;;;4.90;2.25;;;21.20;57.20;;;;;;5030230;28;20032;-75
2021/10/07 22:11:22;;;;;;;4.53;2.00;;;21.20;57.20;;;;;;5029130;28;20453;-75
2021/10/07 22:13:48;;;;;;;4.07;2.00;;;21.20;57.10;;;;;;5033240;28;20494;-75
2021/10/07 22:16:13;;;;;;;4.50;2.13;;;21.10;57.10;;;;;;5025103;28;20036;-75
2021/10/07 22:18:39;;;;;;;4.03;2.05;;;21.20;57.10;;;;;;5029706;28;20037;-75
2021/10/07 22:21:05;;;;;;;4.05;2.30;;;21.10;57.00;;;;;;5020323;28;20055;-75
2021/10/07 22:23:31;;;;;;;4.07;2.00;;;21.10;57.00;;;;;;5023935;28;20034;-76
2021/10/07 22:25:57;;;;;;;3.78;2.20;;;21.10;56.90;;;;;;5020439;28;20101;-75
2021/10/07 22:28:22;;;;;;;4.00;2.15;;;21.10;56.90;;;;;;5019737;28;20044;-76
2021/10/07 22:30:49;;;;;;;4.57;2.30;;;21.10;56.90;;;;;;5030533;28;20036;-76
2021/10/07 22:33:15;;;;;;;3.72;2.38;;;21.10;56.90;;;;;;5028969;28;20059;-76
2021/10/07 22:35:47;;;;;;;4.35;2.33;;;21.10;56.80;;;;;;5030406;28;20021;-76
2021/10/07 22:38:14;;;;;;;4.75;2.60;;;21.10;56.80;;;;;;5024076;28;20041;-75
2021/10/07 22:40:40;;;;;;;3.83;1.90;;;21.10;56.70;;;;;;5026332;28;20102;-76
2021/10/07 22:43:06;;;;;;;4.25;2.30;;;21.10;56.70;;;;;;5024068;28;20494;-75
2021/10/07 22:45:32;;;;;;;3.53;2.00;;;21.10;56.70;;;;;;5027685;28;20024;-75
2021/10/07 22:47:59;;;;;;;3.88;2.15;;;21.10;56.60;;;;;;5026446;28;20033;-76